sensor_id;sensor_type;location;lat;lon;timestamp;P1;durP1;ratioP1;P2;durP2;ratioP2
57345;SDS011;43181;50.974;18.244;2023-03-01T00:01:59;9.80;;;5.30;;
57345;SDS011;43181;50.974;18.244;2023-03-01T00:04:27;17.10;;;8.90;;
57345;SDS011;43181;50.974;18.244;2023-03-01T00:06:55;14.30;;;6.20;;
57345;SDS011;43181;50.974;18.244;2023-03-01T00:09:20;17.30;;;4.50;;
57345;SDS011;43181;50.974;18.244;2023-03-01T00:11:46;6.90;;;4.40;;
57345;SDS011;43181;50.974;18.244;2023-03-01T00:14:12;7.10;;;6.50;;
57345;SDS011;43181;50.974;18.244;2023-03-01T00:16:41;8.70;;;6.20;;
57345;SDS011;43181;50.974;18.244;2023-03-01T00:19:17;9.30;;;5.50;;
57345;SDS011;43181;50.974;18.244;2023-03-01T00:21:44;10.80;;;8.30;;
57345;SDS011;43181;50.974;18.244;2023-03-01T00:24:10;11.00;;;7.80;;
57345;SDS011;43181;50.974;18.244;2023-03-01T00:26:35;14.20;;;11.80;;
57345;SDS011;43181;50.974;18.244;2023-03-01T00:29:01;14.20;;;9.50;;
57345;SDS011;43181;50.974;18.244;2023-03-01T00:31:28;15.00;;;12.30;;
57345;SDS011;43181;50.974;18.244;2023-03-01T00:33:55;14.20;;;7.90;;
57345;SDS011;43181;50.974;18.244;2023-03-01T00:36:23;26.20;;;11.20;;
57345;SDS011;43181;50.974;18.244;2023-03-01T00:38:56;14.00;;;10.30;;
57345;SDS011;43181;50.974;18.244;2023-03-01T00:41:22;9.20;;;8.40;;
57345;SDS011;43181;50.974;18.244;2023-03-01T00:43:49;24.20;;;17.10;;
57345;SDS011;43181;50.974;18.244;2023-03-01T00:46:16;54.40;;;23.20;;
57345;SDS011;43181;50.974;18.244;2023-03-01T00:48:44;21.10;;;14.00;;
57345;SDS011;43181;50.974;18.244;2023-03-01T00:51:11;32.30;;;16.80;;
57345;SDS011;43181;50.974;18.244;2023-03-01T00:53:44;28.20;;;12.00;;
57345;SDS011;43181;50.974;18.244;2023-03-01T00:56:11;18.10;;;9.10;;
57345;SDS011;43181;50.974;18.244;2023-03-01T00:58:37;21.80;;;9.60;;
57345;SDS011;43181;50.974;18.244;2023-03-01T01:01:07;35.60;;;15.80;;
57345;SDS011;43181;50.974;18.244;2023-03-01T01:06:13;19.70;;;11.90;;
57345;SDS011;43181;50.974;18.244;2023-03-01T01:08:40;25.30;;;11.30;;
57345;SDS011;43181;50.974;18.244;2023-03-01T01:11:08;15.50;;;11.00;;
57345;SDS011;43181;50.974;18.244;2023-03-01T01:13:34;11.30;;;10.10;;
57345;SDS011;43181;50.974;18.244;2023-03-01T01:16:01;15.80;;;8.50;;
57345;SDS011;43181;50.974;18.244;2023-03-01T01:18:26;23.30;;;8.70;;
57345;SDS011;43181;50.974;18.244;2023-03-01T01:20:52;4.10;;;2.40;;
57345;SDS011;43181;50.974;18.244;2023-03-01T01:23:18;13.10;;;6.00;;
57345;SDS011;43181;50.974;18.244;2023-03-01T01:25:43;9.00;;;6.30;;
57345;SDS011;43181;50.974;18.244;2023-03-01T01:28:09;13.50;;;5.20;;
57345;SDS011;43181;50.974;18.244;2023-03-01T01:30:34;11.10;;;5.20;;
57345;SDS011;43181;50.974;18.244;2023-03-01T01:33:00;3.90;;;3.60;;
57345;SDS011;43181;50.974;18.244;2023-03-01T01:35:27;5.80;;;4.70;;
57345;SDS011;43181;50.974;18.244;2023-03-01T01:37:52;4.00;;;3.30;;
57345;SDS011;43181;50.974;18.244;2023-03-01T01:40:18;12.60;;;7.10;;
57345;SDS011;43181;50.974;18.244;2023-03-01T01:42:44;1.80;;;1.70;;
57345;SDS011;43181;50.974;18.244;2023-03-01T01:45:26;1.80;;;1.80;;
57345;SDS011;43181;50.974;18.244;2023-03-01T01:48:10;3.60;;;3.30;;
57345;SDS011;43181;50.974;18.244;2023-03-01T01:50:39;5.30;;;4.80;;
57345;SDS011;43181;50.974;18.244;2023-03-01T01:53:07;12.30;;;5.70;;
57345;SDS011;43181;50.974;18.244;2023-03-01T01:55:36;5.30;;;5.00;;
57345;SDS011;43181;50.974;18.244;2023-03-01T01:58:03;6.10;;;4.10;;
57345;SDS011;43181;50.974;18.244;2023-03-01T02:00:31;3.60;;;3.10;;
57345;SDS011;43181;50.974;18.244;2023-03-01T02:03:17;8.10;;;7.40;;
57345;SDS011;43181;50.974;18.244;2023-03-01T02:06:03;8.10;;;6.50;;
57345;SDS011;43181;50.974;18.244;2023-03-01T02:08:48;11.40;;;5.40;;
57345;SDS011;43181;50.974;18.244;2023-03-01T02:11:15;3.60;;;3.30;;
57345;SDS011;43181;50.974;18.244;2023-03-01T02:13:41;3.10;;;2.70;;
57345;SDS011;43181;50.974;18.244;2023-03-01T02:16:11;10.30;;;4.30;;
57345;SDS011;43181;50.974;18.244;2023-03-01T02:18:41;4.40;;;4.10;;
57345;SDS011;43181;50.974;18.244;2023-03-01T02:23:56;5.20;;;4.70;;
57345;SDS011;43181;50.974;18.244;2023-03-01T02:28:50;5.70;;;3.50;;
57345;SDS011;43181;50.974;18.244;2023-03-01T02:31:17;2.80;;;2.50;;
57345;SDS011;43181;50.974;18.244;2023-03-01T02:34:02;7.60;;;4.30;;
57345;SDS011;43181;50.974;18.244;2023-03-01T02:36:37;10.10;;;7.20;;
57345;SDS011;43181;50.974;18.244;2023-03-01T02:39:05;3.90;;;3.60;;
57345;SDS011;43181;50.974;18.244;2023-03-01T02:41:36;2.70;;;2.60;;
57345;SDS011;43181;50.974;18.244;2023-03-01T02:44:04;4.90;;;4.50;;
57345;SDS011;43181;50.974;18.244;2023-03-01T02:46:30;11.50;;;6.80;;
57345;SDS011;43181;50.974;18.244;2023-03-01T02:48:56;10.50;;;5.50;;
57345;SDS011;43181;50.974;18.244;2023-03-01T02:51:47;3.60;;;3.40;;
57345;SDS011;43181;50.974;18.244;2023-03-01T02:56:51;2.80;;;2.60;;
57345;SDS011;43181;50.974;18.244;2023-03-01T02:59:18;3.70;;;3.40;;
57345;SDS011;43181;50.974;18.244;2023-03-01T03:01:45;7.10;;;3.80;;
57345;SDS011;43181;50.974;18.244;2023-03-01T03:04:13;3.80;;;3.50;;
57345;SDS011;43181;50.974;18.244;2023-03-01T03:06:44;7.10;;;4.00;;
57345;SDS011;43181;50.974;18.244;2023-03-01T03:09:10;4.20;;;3.80;;
57345;SDS011;43181;50.974;18.244;2023-03-01T03:11:37;3.70;;;3.50;;
57345;SDS011;43181;50.974;18.244;2023-03-01T03:14:04;8.50;;;4.50;;
57345;SDS011;43181;50.974;18.244;2023-03-01T03:16:31;9.50;;;3.10;;
57345;SDS011;43181;50.974;18.244;2023-03-01T03:18:56;4.50;;;4.10;;
57345;SDS011;43181;50.974;18.244;2023-03-01T03:21:33;10.50;;;4.70;;
57345;SDS011;43181;50.974;18.244;2023-03-01T03:23:58;0.80;;;0.80;;
57345;SDS011;43181;50.974;18.244;2023-03-01T03:26:24;0.80;;;0.80;;
57345;SDS011;43181;50.974;18.244;2023-03-01T03:28:50;7.00;;;2.90;;
57345;SDS011;43181;50.974;18.244;2023-03-01T03:31:16;4.60;;;3.40;;
57345;SDS011;43181;50.974;18.244;2023-03-01T03:33:42;8.00;;;4.10;;
57345;SDS011;43181;50.974;18.244;2023-03-01T03:36:08;5.10;;;4.70;;
57345;SDS011;43181;50.974;18.244;2023-03-01T03:38:38;19.50;;;5.40;;
57345;SDS011;43181;50.974;18.244;2023-03-01T03:41:06;12.50;;;5.60;;
57345;SDS011;43181;50.974;18.244;2023-03-01T03:43:33;3.90;;;2.30;;
57345;SDS011;43181;50.974;18.244;2023-03-01T03:46:02;4.60;;;3.00;;
57345;SDS011;43181;50.974;18.244;2023-03-01T03:48:34;4.40;;;3.20;;
57345;SDS011;43181;50.974;18.244;2023-03-01T03:51:09;3.20;;;3.00;;
57345;SDS011;43181;50.974;18.244;2023-03-01T03:53:36;5.80;;;5.20;;
57345;SDS011;43181;50.974;18.244;2023-03-01T03:56:02;3.60;;;3.30;;
57345;SDS011;43181;50.974;18.244;2023-03-01T03:58:27;11.30;;;7.10;;
57345;SDS011;43181;50.974;18.244;2023-03-01T04:00:54;2.60;;;2.40;;
57345;SDS011;43181;50.974;18.244;2023-03-01T04:03:21;2.80;;;2.60;;
57345;SDS011;43181;50.974;18.244;2023-03-01T04:05:48;2.10;;;1.90;;
57345;SDS011;43181;50.974;18.244;2023-03-01T04:08:18;6.50;;;3.30;;
57345;SDS011;43181;50.974;18.244;2023-03-01T04:10:47;11.70;;;3.30;;
57345;SDS011;43181;50.974;18.244;2023-03-01T04:13:16;2.70;;;2.50;;
57345;SDS011;43181;50.974;18.244;2023-03-01T04:15:45;2.20;;;2.10;;
57345;SDS011;43181;50.974;18.244;2023-03-01T04:18:12;3.20;;;2.70;;
57345;SDS011;43181;50.974;18.244;2023-03-01T04:20:39;3.10;;;2.90;;
57345;SDS011;43181;50.974;18.244;2023-03-01T04:23:06;7.90;;;3.70;;
57345;SDS011;43181;50.974;18.244;2023-03-01T04:25:55;2.70;;;2.60;;
57345;SDS011;43181;50.974;18.244;2023-03-01T04:28:22;5.40;;;5.00;;
57345;SDS011;43181;50.974;18.244;2023-03-01T04:30:52;3.60;;;3.40;;
57345;SDS011;43181;50.974;18.244;2023-03-01T04:33:19;6.70;;;6.10;;
57345;SDS011;43181;50.974;18.244;2023-03-01T04:35:45;7.30;;;3.60;;
57345;SDS011;43181;50.974;18.244;2023-03-01T04:38:14;3.40;;;3.20;;
57345;SDS011;43181;50.974;18.244;2023-03-01T04:40:41;4.10;;;3.80;;
57345;SDS011;43181;50.974;18.244;2023-03-01T04:43:09;2.50;;;2.40;;
57345;SDS011;43181;50.974;18.244;2023-03-01T04:45:35;3.30;;;3.20;;
57345;SDS011;43181;50.974;18.244;2023-03-01T04:48:01;5.00;;;4.50;;
57345;SDS011;43181;50.974;18.244;2023-03-01T04:50:27;6.20;;;5.60;;
57345;SDS011;43181;50.974;18.244;2023-03-01T04:52:53;5.00;;;2.80;;
57345;SDS011;43181;50.974;18.244;2023-03-01T04:55:19;4.30;;;4.00;;
57345;SDS011;43181;50.974;18.244;2023-03-01T04:57:44;6.20;;;5.30;;
57345;SDS011;43181;50.974;18.244;2023-03-01T05:00:10;2.90;;;2.60;;
57345;SDS011;43181;50.974;18.244;2023-03-01T05:02:54;4.80;;;4.20;;
57345;SDS011;43181;50.974;18.244;2023-03-01T05:07:53;3.30;;;3.20;;
57345;SDS011;43181;50.974;18.244;2023-03-01T05:10:22;6.60;;;5.10;;
57345;SDS011;43181;50.974;18.244;2023-03-01T05:12:49;2.20;;;2.10;;
57345;SDS011;43181;50.974;18.244;2023-03-01T05:15:14;4.10;;;3.80;;
57345;SDS011;43181;50.974;18.244;2023-03-01T05:17:40;1.60;;;1.60;;
57345;SDS011;43181;50.974;18.244;2023-03-01T05:20:06;3.20;;;3.00;;
57345;SDS011;43181;50.974;18.244;2023-03-01T05:22:36;2.10;;;1.90;;
57345;SDS011;43181;50.974;18.244;2023-03-01T05:25:02;10.50;;;5.50;;
57345;SDS011;43181;50.974;18.244;2023-03-01T05:27:29;10.90;;;10.20;;
57345;SDS011;43181;50.974;18.244;2023-03-01T05:29:55;25.80;;;13.60;;
57345;SDS011;43181;50.974;18.244;2023-03-01T05:32:21;13.90;;;11.50;;
57345;SDS011;43181;50.974;18.244;2023-03-01T05:34:47;30.10;;;7.70;;
57345;SDS011;43181;50.974;18.244;2023-03-01T05:37:13;4.30;;;3.90;;
57345;SDS011;43181;50.974;18.244;2023-03-01T05:39:39;11.50;;;9.90;;
57345;SDS011;43181;50.974;18.244;2023-03-01T05:42:09;3.40;;;3.20;;
57345;SDS011;43181;50.974;18.244;2023-03-01T05:44:35;5.50;;;4.20;;
57345;SDS011;43181;50.974;18.244;2023-03-01T05:47:01;5.00;;;4.60;;
57345;SDS011;43181;50.974;18.244;2023-03-01T05:49:26;16.70;;;5.80;;
57345;SDS011;43181;50.974;18.244;2023-03-01T05:51:55;6.50;;;6.00;;
57345;SDS011;43181;50.974;18.244;2023-03-01T05:54:21;4.70;;;3.70;;
57345;SDS011;43181;50.974;18.244;2023-03-01T05:56:47;2.40;;;2.20;;
57345;SDS011;43181;50.974;18.244;2023-03-01T05:59:12;10.00;;;6.00;;
57345;SDS011;43181;50.974;18.244;2023-03-01T06:01:40;14.30;;;6.90;;
57345;SDS011;43181;50.974;18.244;2023-03-01T06:04:06;5.10;;;3.90;;
57345;SDS011;43181;50.974;18.244;2023-03-01T06:06:35;7.80;;;4.00;;
57345;SDS011;43181;50.974;18.244;2023-03-01T06:09:03;5.70;;;4.90;;
57345;SDS011;43181;50.974;18.244;2023-03-01T06:11:29;5.70;;;4.50;;
57345;SDS011;43181;50.974;18.244;2023-03-01T06:13:55;6.90;;;4.60;;
57345;SDS011;43181;50.974;18.244;2023-03-01T06:16:20;28.30;;;12.90;;
57345;SDS011;43181;50.974;18.244;2023-03-01T06:18:46;18.00;;;10.70;;
57345;SDS011;43181;50.974;18.244;2023-03-01T06:21:11;14.20;;;6.20;;
57345;SDS011;43181;50.974;18.244;2023-03-01T06:23:37;8.20;;;7.40;;
57345;SDS011;43181;50.974;18.244;2023-03-01T06:26:07;7.60;;;6.80;;
57345;SDS011;43181;50.974;18.244;2023-03-01T06:28:33;7.80;;;6.70;;
57345;SDS011;43181;50.974;18.244;2023-03-01T06:30:59;7.30;;;5.90;;
57345;SDS011;43181;50.974;18.244;2023-03-01T06:33:24;14.80;;;7.30;;
57345;SDS011;43181;50.974;18.244;2023-03-01T06:35:50;14.40;;;6.00;;
57345;SDS011;43181;50.974;18.244;2023-03-01T06:38:16;15.60;;;7.60;;
57345;SDS011;43181;50.974;18.244;2023-03-01T06:40:44;21.00;;;5.70;;
57345;SDS011;43181;50.974;18.244;2023-03-01T06:43:11;15.20;;;9.30;;
57345;SDS011;43181;50.974;18.244;2023-03-01T06:45:37;19.00;;;9.30;;
57345;SDS011;43181;50.974;18.244;2023-03-01T06:48:05;11.50;;;6.50;;
57345;SDS011;43181;50.974;18.244;2023-03-01T06:50:33;14.30;;;6.60;;
57345;SDS011;43181;50.974;18.244;2023-03-01T06:52:59;14.20;;;6.90;;
57345;SDS011;43181;50.974;18.244;2023-03-01T06:55:25;16.60;;;7.50;;
57345;SDS011;43181;50.974;18.244;2023-03-01T06:57:57;17.30;;;7.10;;
57345;SDS011;43181;50.974;18.244;2023-03-01T07:00:24;18.00;;;7.70;;
57345;SDS011;43181;50.974;18.244;2023-03-01T07:02:51;31.80;;;10.10;;
57345;SDS011;43181;50.974;18.244;2023-03-01T07:05:17;24.20;;;12.20;;
57345;SDS011;43181;50.974;18.244;2023-03-01T07:07:43;17.30;;;8.20;;
57345;SDS011;43181;50.974;18.244;2023-03-01T07:10:09;17.80;;;8.50;;
57345;SDS011;43181;50.974;18.244;2023-03-01T07:12:35;15.30;;;7.80;;
57345;SDS011;43181;50.974;18.244;2023-03-01T07:15:01;16.30;;;8.60;;
57345;SDS011;43181;50.974;18.244;2023-03-01T07:17:27;18.80;;;8.30;;
57345;SDS011;43181;50.974;18.244;2023-03-01T07:19:53;22.30;;;6.70;;
57345;SDS011;43181;50.974;18.244;2023-03-01T07:22:19;16.50;;;7.50;;
57345;SDS011;43181;50.974;18.244;2023-03-01T07:24:44;21.50;;;8.10;;
57345;SDS011;43181;50.974;18.244;2023-03-01T07:27:10;29.70;;;9.50;;
57345;SDS011;43181;50.974;18.244;2023-03-01T07:29:40;17.70;;;9.40;;
57345;SDS011;43181;50.974;18.244;2023-03-01T07:32:06;17.20;;;8.10;;
57345;SDS011;43181;50.974;18.244;2023-03-01T07:34:32;22.20;;;9.30;;
57345;SDS011;43181;50.974;18.244;2023-03-01T07:36:58;17.00;;;7.30;;
57345;SDS011;43181;50.974;18.244;2023-03-01T07:39:24;11.40;;;7.20;;
57345;SDS011;43181;50.974;18.244;2023-03-01T07:41:50;21.80;;;8.10;;
57345;SDS011;43181;50.974;18.244;2023-03-01T07:44:15;25.30;;;10.10;;
57345;SDS011;43181;50.974;18.244;2023-03-01T07:46:42;19.70;;;9.30;;
57345;SDS011;43181;50.974;18.244;2023-03-01T07:49:08;23.30;;;9.20;;
57345;SDS011;43181;50.974;18.244;2023-03-01T07:51:35;24.70;;;10.10;;
57345;SDS011;43181;50.974;18.244;2023-03-01T07:54:03;22.60;;;8.80;;
57345;SDS011;43181;50.974;18.244;2023-03-01T07:56:29;25.40;;;8.60;;
57345;SDS011;43181;50.974;18.244;2023-03-01T07:58:54;22.30;;;7.40;;
57345;SDS011;43181;50.974;18.244;2023-03-01T08:01:21;20.40;;;8.50;;
57345;SDS011;43181;50.974;18.244;2023-03-01T08:03:47;16.50;;;7.00;;
57345;SDS011;43181;50.974;18.244;2023-03-01T08:06:13;25.90;;;9.20;;
57345;SDS011;43181;50.974;18.244;2023-03-01T08:08:40;20.60;;;10.00;;
57345;SDS011;43181;50.974;18.244;2023-03-01T08:11:06;17.10;;;7.40;;
57345;SDS011;43181;50.974;18.244;2023-03-01T08:13:32;25.60;;;10.00;;
57345;SDS011;43181;50.974;18.244;2023-03-01T08:16:06;31.30;;;12.60;;
57345;SDS011;43181;50.974;18.244;2023-03-01T08:18:38;29.50;;;11.20;;
57345;SDS011;43181;50.974;18.244;2023-03-01T08:21:05;22.50;;;9.50;;
57345;SDS011;43181;50.974;18.244;2023-03-01T08:23:32;23.20;;;10.00;;
57345;SDS011;43181;50.974;18.244;2023-03-01T08:26:05;21.00;;;9.60;;
57345;SDS011;43181;50.974;18.244;2023-03-01T08:28:41;22.10;;;8.10;;
57345;SDS011;43181;50.974;18.244;2023-03-01T08:34:07;11.30;;;6.00;;
57345;SDS011;43181;50.974;18.244;2023-03-01T08:36:35;14.20;;;6.50;;
57345;SDS011;43181;50.974;18.244;2023-03-01T08:39:04;13.80;;;6.30;;
57345;SDS011;43181;50.974;18.244;2023-03-01T08:41:30;16.40;;;6.50;;
57345;SDS011;43181;50.974;18.244;2023-03-01T08:43:56;16.80;;;6.10;;
57345;SDS011;43181;50.974;18.244;2023-03-01T08:46:33;13.60;;;7.00;;
57345;SDS011;43181;50.974;18.244;2023-03-01T08:49:04;14.30;;;6.20;;
57345;SDS011;43181;50.974;18.244;2023-03-01T08:51:31;15.40;;;8.00;;
57345;SDS011;43181;50.974;18.244;2023-03-01T08:54:20;19.00;;;8.90;;
57345;SDS011;43181;50.974;18.244;2023-03-01T08:56:47;11.10;;;5.70;;
57345;SDS011;43181;50.974;18.244;2023-03-01T08:59:13;7.60;;;4.50;;
57345;SDS011;43181;50.974;18.244;2023-03-01T09:01:40;16.10;;;5.30;;
57345;SDS011;43181;50.974;18.244;2023-03-01T09:04:08;15.50;;;7.60;;
57345;SDS011;43181;50.974;18.244;2023-03-01T09:06:35;20.90;;;8.00;;
57345;SDS011;43181;50.974;18.244;2023-03-01T09:09:01;15.30;;;7.10;;
57345;SDS011;43181;50.974;18.244;2023-03-01T09:11:28;17.30;;;8.40;;
57345;SDS011;43181;50.974;18.244;2023-03-01T09:13:55;19.20;;;8.70;;
57345;SDS011;43181;50.974;18.244;2023-03-01T09:16:21;23.20;;;10.40;;
57345;SDS011;43181;50.974;18.244;2023-03-01T09:18:51;28.20;;;10.80;;
57345;SDS011;43181;50.974;18.244;2023-03-01T09:21:19;17.80;;;9.70;;
57345;SDS011;43181;50.974;18.244;2023-03-01T09:23:46;26.10;;;10.40;;
57345;SDS011;43181;50.974;18.244;2023-03-01T09:26:14;25.40;;;9.90;;
57345;SDS011;43181;50.974;18.244;2023-03-01T09:28:48;20.60;;;9.40;;
57345;SDS011;43181;50.974;18.244;2023-03-01T09:31:14;27.20;;;11.70;;
57345;SDS011;43181;50.974;18.244;2023-03-01T09:33:42;23.60;;;9.60;;
57345;SDS011;43181;50.974;18.244;2023-03-01T09:36:11;24.00;;;8.50;;
57345;SDS011;43181;50.974;18.244;2023-03-01T09:38:38;14.30;;;5.60;;
57345;SDS011;43181;50.974;18.244;2023-03-01T09:43:44;14.10;;;5.50;;
57345;SDS011;43181;50.974;18.244;2023-03-01T09:46:13;14.70;;;6.30;;
57345;SDS011;43181;50.974;18.244;2023-03-01T09:48:46;8.90;;;5.10;;
57345;SDS011;43181;50.974;18.244;2023-03-01T09:51:17;12.60;;;5.70;;
57345;SDS011;43181;50.974;18.244;2023-03-01T09:53:45;12.00;;;5.60;;
57345;SDS011;43181;50.974;18.244;2023-03-01T09:56:17;11.40;;;5.70;;
57345;SDS011;43181;50.974;18.244;2023-03-01T09:58:47;6.50;;;3.30;;
57345;SDS011;43181;50.974;18.244;2023-03-01T10:01:32;7.00;;;2.90;;
57345;SDS011;43181;50.974;18.244;2023-03-01T10:09:40;6.70;;;3.80;;
57345;SDS011;43181;50.974;18.244;2023-03-01T10:12:09;17.60;;;4.10;;
57345;SDS011;43181;50.974;18.244;2023-03-01T10:17:39;7.20;;;3.50;;
57345;SDS011;43181;50.974;18.244;2023-03-01T10:20:16;5.80;;;4.30;;
57345;SDS011;43181;50.974;18.244;2023-03-01T10:22:43;9.50;;;3.60;;
57345;SDS011;43181;50.974;18.244;2023-03-01T10:25:16;11.50;;;4.70;;
57345;SDS011;43181;50.974;18.244;2023-03-01T10:28:10;9.10;;;4.80;;
57345;SDS011;43181;50.974;18.244;2023-03-01T10:30:56;10.00;;;4.20;;
57345;SDS011;43181;50.974;18.244;2023-03-01T10:33:24;5.80;;;3.30;;
57345;SDS011;43181;50.974;18.244;2023-03-01T10:35:52;8.10;;;4.30;;
57345;SDS011;43181;50.974;18.244;2023-03-01T10:38:18;7.80;;;4.40;;
57345;SDS011;43181;50.974;18.244;2023-03-01T10:43:20;6.20;;;3.60;;
57345;SDS011;43181;50.974;18.244;2023-03-01T10:45:46;11.50;;;4.80;;
57345;SDS011;43181;50.974;18.244;2023-03-01T10:48:16;8.50;;;3.20;;
57345;SDS011;43181;50.974;18.244;2023-03-01T10:53:28;8.90;;;3.90;;
57345;SDS011;43181;50.974;18.244;2023-03-01T10:58:39;9.60;;;4.70;;
57345;SDS011;43181;50.974;18.244;2023-03-01T11:03:41;7.30;;;3.60;;
57345;SDS011;43181;50.974;18.244;2023-03-01T11:11:03;7.50;;;3.90;;
57345;SDS011;43181;50.974;18.244;2023-03-01T11:13:31;7.40;;;3.50;;
57345;SDS011;43181;50.974;18.244;2023-03-01T11:18:32;7.00;;;3.80;;
57345;SDS011;43181;50.974;18.244;2023-03-01T11:20:58;9.20;;;4.10;;
57345;SDS011;43181;50.974;18.244;2023-03-01T11:23:25;6.10;;;3.00;;
57345;SDS011;43181;50.974;18.244;2023-03-01T11:25:58;8.80;;;4.10;;
57345;SDS011;43181;50.974;18.244;2023-03-01T11:28:27;10.30;;;3.70;;
57345;SDS011;43181;50.974;18.244;2023-03-01T11:30:59;8.30;;;3.80;;
57345;SDS011;43181;50.974;18.244;2023-03-01T11:33:37;10.80;;;4.90;;
57345;SDS011;43181;50.974;18.244;2023-03-01T11:38:56;9.00;;;4.80;;
57345;SDS011;43181;50.974;18.244;2023-03-01T11:41:26;13.50;;;4.80;;
57345;SDS011;43181;50.974;18.244;2023-03-01T11:44:03;10.40;;;4.70;;
57345;SDS011;43181;50.974;18.244;2023-03-01T11:58:11;7.40;;;3.70;;
57345;SDS011;43181;50.974;18.244;2023-03-01T12:03:50;7.70;;;3.50;;
57345;SDS011;43181;50.974;18.244;2023-03-01T12:17:29;9.30;;;4.50;;
57345;SDS011;43181;50.974;18.244;2023-03-01T12:20:20;10.00;;;4.10;;
57345;SDS011;43181;50.974;18.244;2023-03-01T12:28:27;11.50;;;5.20;;
57345;SDS011;43181;50.974;18.244;2023-03-01T12:44:24;8.10;;;3.40;;
57345;SDS011;43181;50.974;18.244;2023-03-01T12:49:49;10.70;;;4.30;;
57345;SDS011;43181;50.974;18.244;2023-03-01T12:55:33;9.40;;;4.50;;
57345;SDS011;43181;50.974;18.244;2023-03-01T12:58:01;10.90;;;4.80;;
57345;SDS011;43181;50.974;18.244;2023-03-01T13:05:51;8.70;;;4.50;;
57345;SDS011;43181;50.974;18.244;2023-03-01T13:08:32;7.90;;;4.00;;
57345;SDS011;43181;50.974;18.244;2023-03-01T13:11:03;7.90;;;4.00;;
57345;SDS011;43181;50.974;18.244;2023-03-01T13:13:30;10.30;;;3.80;;
57345;SDS011;43181;50.974;18.244;2023-03-01T13:15:56;5.40;;;3.50;;
57345;SDS011;43181;50.974;18.244;2023-03-01T13:20:59;7.20;;;3.80;;
57345;SDS011;43181;50.974;18.244;2023-03-01T13:23:28;8.30;;;4.00;;
57345;SDS011;43181;50.974;18.244;2023-03-01T13:36:09;8.10;;;4.30;;
57345;SDS011;43181;50.974;18.244;2023-03-01T13:38:44;12.90;;;3.60;;
57345;SDS011;43181;50.974;18.244;2023-03-01T13:41:14;6.80;;;2.90;;
57345;SDS011;43181;50.974;18.244;2023-03-01T13:43:43;8.70;;;4.20;;
57345;SDS011;43181;50.974;18.244;2023-03-01T13:46:11;7.10;;;3.40;;
57345;SDS011;43181;50.974;18.244;2023-03-01T13:48:42;5.80;;;2.50;;
57345;SDS011;43181;50.974;18.244;2023-03-01T13:51:10;6.40;;;3.60;;
57345;SDS011;43181;50.974;18.244;2023-03-01T13:53:42;7.30;;;3.80;;
57345;SDS011;43181;50.974;18.244;2023-03-01T13:58:48;9.20;;;4.20;;
57345;SDS011;43181;50.974;18.244;2023-03-01T14:01:26;9.90;;;4.30;;
57345;SDS011;43181;50.974;18.244;2023-03-01T14:03:57;5.50;;;2.90;;
57345;SDS011;43181;50.974;18.244;2023-03-01T14:06:24;6.50;;;2.90;;
57345;SDS011;43181;50.974;18.244;2023-03-01T14:08:59;7.70;;;4.10;;
57345;SDS011;43181;50.974;18.244;2023-03-01T14:19:58;11.20;;;2.90;;
57345;SDS011;43181;50.974;18.244;2023-03-01T14:22:27;9.50;;;4.10;;
57345;SDS011;43181;50.974;18.244;2023-03-01T14:25:01;6.90;;;3.90;;
57345;SDS011;43181;50.974;18.244;2023-03-01T14:27:45;6.00;;;3.50;;
57345;SDS011;43181;50.974;18.244;2023-03-01T14:30:21;9.40;;;4.60;;
57345;SDS011;43181;50.974;18.244;2023-03-01T14:32:57;9.10;;;4.30;;
57345;SDS011;43181;50.974;18.244;2023-03-01T14:35:25;7.40;;;3.60;;
57345;SDS011;43181;50.974;18.244;2023-03-01T14:37:56;10.70;;;4.50;;
57345;SDS011;43181;50.974;18.244;2023-03-01T14:42:59;13.00;;;3.50;;
57345;SDS011;43181;50.974;18.244;2023-03-01T14:45:28;7.70;;;3.80;;
57345;SDS011;43181;50.974;18.244;2023-03-01T14:47:55;9.80;;;3.50;;
57345;SDS011;43181;50.974;18.244;2023-03-01T14:50:26;8.60;;;3.60;;
57345;SDS011;43181;50.974;18.244;2023-03-01T14:52:55;8.90;;;4.00;;
57345;SDS011;43181;50.974;18.244;2023-03-01T14:58:03;10.30;;;5.40;;
57345;SDS011;43181;50.974;18.244;2023-03-01T15:00:31;20.40;;;4.50;;
57345;SDS011;43181;50.974;18.244;2023-03-01T15:03:00;9.20;;;3.90;;
57345;SDS011;43181;50.974;18.244;2023-03-01T15:05:35;13.90;;;3.90;;
57345;SDS011;43181;50.974;18.244;2023-03-01T15:08:01;12.40;;;3.50;;
57345;SDS011;43181;50.974;18.244;2023-03-01T15:10:29;7.00;;;3.80;;
57345;SDS011;43181;50.974;18.244;2023-03-01T15:13:09;12.90;;;4.90;;
57345;SDS011;43181;50.974;18.244;2023-03-01T15:15:45;11.30;;;6.10;;
57345;SDS011;43181;50.974;18.244;2023-03-01T15:18:13;12.00;;;4.50;;
57345;SDS011;43181;50.974;18.244;2023-03-01T15:23:28;10.60;;;4.50;;
57345;SDS011;43181;50.974;18.244;2023-03-01T15:25:55;64.80;;;23.90;;
57345;SDS011;43181;50.974;18.244;2023-03-01T15:28:26;7.70;;;3.80;;
57345;SDS011;43181;50.974;18.244;2023-03-01T15:33:45;6.10;;;3.40;;
57345;SDS011;43181;50.974;18.244;2023-03-01T15:36:32;5.90;;;2.40;;
57345;SDS011;43181;50.974;18.244;2023-03-01T15:39:23;9.70;;;4.10;;
57345;SDS011;43181;50.974;18.244;2023-03-01T15:42:06;4.20;;;3.20;;
57345;SDS011;43181;50.974;18.244;2023-03-01T15:44:35;6.90;;;3.20;;
57345;SDS011;43181;50.974;18.244;2023-03-01T15:47:02;5.60;;;3.60;;
57345;SDS011;43181;50.974;18.244;2023-03-01T15:49:38;15.30;;;4.10;;
57345;SDS011;43181;50.974;18.244;2023-03-01T15:52:13;6.90;;;4.10;;
57345;SDS011;43181;50.974;18.244;2023-03-01T15:55:04;4.80;;;3.90;;
57345;SDS011;43181;50.974;18.244;2023-03-01T15:57:32;5.60;;;3.40;;
57345;SDS011;43181;50.974;18.244;2023-03-01T15:59:58;9.80;;;4.30;;
57345;SDS011;43181;50.974;18.244;2023-03-01T16:02:23;3.50;;;2.80;;
57345;SDS011;43181;50.974;18.244;2023-03-01T16:04:50;4.60;;;3.20;;
57345;SDS011;43181;50.974;18.244;2023-03-01T16:07:16;10.00;;;4.40;;
57345;SDS011;43181;50.974;18.244;2023-03-01T16:09:41;12.40;;;5.00;;
57345;SDS011;43181;50.974;18.244;2023-03-01T16:12:15;8.30;;;4.20;;
57345;SDS011;43181;50.974;18.244;2023-03-01T16:14:42;10.10;;;4.10;;
57345;SDS011;43181;50.974;18.244;2023-03-01T16:17:07;3.20;;;2.90;;
57345;SDS011;43181;50.974;18.244;2023-03-01T16:19:35;5.30;;;4.50;;
57345;SDS011;43181;50.974;18.244;2023-03-01T16:22:03;19.50;;;9.90;;
57345;SDS011;43181;50.974;18.244;2023-03-01T16:24:28;7.50;;;5.30;;
57345;SDS011;43181;50.974;18.244;2023-03-01T16:26:55;7.60;;;5.60;;
57345;SDS011;43181;50.974;18.244;2023-03-01T16:29:21;12.90;;;5.90;;
57345;SDS011;43181;50.974;18.244;2023-03-01T16:31:46;8.70;;;4.10;;
57345;SDS011;43181;50.974;18.244;2023-03-01T16:34:13;5.20;;;4.70;;
57345;SDS011;43181;50.974;18.244;2023-03-01T16:36:39;7.40;;;5.30;;
57345;SDS011;43181;50.974;18.244;2023-03-01T16:39:04;4.40;;;3.50;;
57345;SDS011;43181;50.974;18.244;2023-03-01T16:41:30;4.40;;;3.30;;
57345;SDS011;43181;50.974;18.244;2023-03-01T16:43:56;7.30;;;3.60;;
57345;SDS011;43181;50.974;18.244;2023-03-01T16:46:23;19.60;;;5.50;;
57345;SDS011;43181;50.974;18.244;2023-03-01T16:48:50;10.20;;;3.80;;
57345;SDS011;43181;50.974;18.244;2023-03-01T16:51:16;11.80;;;4.80;;
57345;SDS011;43181;50.974;18.244;2023-03-01T16:53:42;4.50;;;3.70;;
57345;SDS011;43181;50.974;18.244;2023-03-01T16:56:09;7.10;;;5.80;;
57345;SDS011;43181;50.974;18.244;2023-03-01T16:58:36;8.00;;;6.50;;